Walla Walla, Washington
Current Conditions -  °F | °C
As of 4:53 AM on Thursday 27 Nov 2014 (Local Time) from KALW Reporting Station
Overcast Overcast  
Wind Chill: 57°   Ceiling: 9000
Heat Index: 57°   Visibility: 10mi
Dew Point: 39°   Wind: 6mph
Humidity: 51%   Direction: 150°SSE
Pressure: 29.93"   Gusts: NA
Location:  46.07°N, 118.34°W
Report Text: KALW 271253Z AUTO 15005KT 10SM OVC090 14/04 A2993 RMK AO2 SLP135 T01390039
Loading
Personal Weather Stations






























Interactive Weather Map New forecast layout! Learn more

10-Day Weather Forecast

Advertisements
Track Severe Weather on mobile